createdAt,value
2022-11-05T00:01:06.405Z,0
2022-11-05T00:02:22.723Z,0
2022-11-05T00:03:39.022Z,0
2022-11-05T00:04:55.295Z,0
2022-11-05T00:06:11.610Z,0
2022-11-05T00:07:27.881Z,0
2022-11-05T00:08:44.171Z,0
2022-11-05T00:10:00.494Z,0
2022-11-05T00:11:16.765Z,0
2022-11-05T00:12:33.068Z,0
2022-11-05T00:13:49.364Z,0
2022-11-05T00:15:05.671Z,0
2022-11-05T00:16:20.968Z,0
2022-11-05T00:17:37.273Z,0
2022-11-05T00:18:53.546Z,0
2022-11-05T00:20:09.837Z,0
2022-11-05T00:21:26.154Z,0
2022-11-05T00:22:42.463Z,0
2022-11-05T00:23:58.726Z,0
2022-11-05T00:25:14.062Z,0
2022-11-05T00:26:29.358Z,0
2022-11-05T00:27:45.654Z,0
2022-11-05T00:29:01.935Z,0
2022-11-05T00:30:18.249Z,0
2022-11-05T00:31:34.529Z,0
2022-11-05T00:32:50.835Z,0
2022-11-05T00:34:07.119Z,0
2022-11-05T00:35:23.415Z,0
2022-11-05T00:36:39.706Z,0
2022-11-05T00:37:55.998Z,0
2022-11-05T00:39:12.291Z,0
2022-11-05T00:40:28.585Z,0
2022-11-05T00:41:44.901Z,0
2022-11-05T00:43:00.187Z,0
2022-11-05T00:44:16.484Z,0
2022-11-05T00:45:32.800Z,0
2022-11-05T00:46:49.081Z,0
2022-11-05T00:48:05.386Z,0
2022-11-05T00:49:21.661Z,0
2022-11-05T00:50:37.956Z,0
2022-11-05T00:51:53.295Z,0
2022-11-05T00:53:08.584Z,0
2022-11-05T00:54:23.897Z,0
2022-11-05T00:55:39.240Z,0
2022-11-05T00:56:55.500Z,0
2022-11-05T00:58:11.794Z,0
2022-11-05T00:59:28.112Z,0
2022-11-05T01:00:44.000Z,0
2022-11-05T01:02:00.687Z,0
2022-11-05T01:03:16.982Z,0
2022-11-05T01:04:33.269Z,0
2022-11-05T01:05:49.573Z,0
2022-11-05T01:07:05.890Z,0
2022-11-05T01:08:22.150Z,0
2022-11-05T01:09:38.463Z,0
2022-11-05T01:10:54.769Z,0
2022-11-05T01:12:10.054Z,0
2022-11-05T01:13:26.363Z,0
2022-11-05T01:14:42.646Z,0
2022-11-05T01:15:58.962Z,0
2022-11-05T01:17:15.241Z,0
2022-11-05T01:18:31.521Z,0
2022-11-05T01:19:47.847Z,0
2022-11-05T01:21:03.151Z,0
2022-11-05T01:23:34.748Z,0
2022-11-05T01:24:50.059Z,0
2022-11-05T01:26:05.372Z,0
2022-11-05T01:27:21.670Z,0
2022-11-05T01:28:37.956Z,0
2022-11-05T01:29:54.270Z,0
2022-11-05T01:31:10.575Z,0
2022-11-05T01:32:26.850Z,0
2022-11-05T01:33:43.130Z,0
2022-11-05T01:34:58.464Z,0
2022-11-05T01:36:14.748Z,0
2022-11-05T01:37:31.040Z,0
2022-11-05T01:38:47.354Z,0
2022-11-05T01:40:03.637Z,0
2022-11-05T01:41:19.921Z,0
2022-11-05T01:42:36.238Z,0
2022-11-05T01:43:52.535Z,0
2022-11-05T01:45:08.804Z,0
2022-11-05T01:46:25.119Z,0
2022-11-05T01:47:41.389Z,0
2022-11-05T01:48:57.704Z,0
2022-11-05T01:50:13.998Z,0
2022-11-05T01:51:29.292Z,0
2022-11-05T01:52:44.616Z,0
2022-11-05T01:53:59.946Z,0
2022-11-05T01:55:16.227Z,0
2022-11-05T01:56:31.558Z,0
2022-11-05T01:57:47.849Z,0
2022-11-05T01:59:04.122Z,0
2022-11-05T02:00:20.418Z,0
2022-11-05T02:01:36.738Z,0
2022-11-05T02:02:52.997Z,0
2022-11-05T02:04:09.317Z,0
2022-11-05T02:05:25.607Z,0
2022-11-05T02:06:41.914Z,0
2022-11-05T02:07:58.191Z,0
2022-11-05T02:09:14.484Z,0
2022-11-05T02:10:30.760Z,0
2022-11-05T02:11:47.057Z,0
2022-11-05T02:13:02.389Z,0
2022-11-05T02:14:18.674Z,0
2022-11-05T02:15:34.982Z,0
2022-11-05T02:16:51.273Z,0
2022-11-05T02:18:07.551Z,0
2022-11-05T02:19:23.849Z,0
2022-11-05T02:20:39.175Z,0
2022-11-05T02:21:54.486Z,0
2022-11-05T02:23:10.761Z,0
2022-11-05T02:24:27.082Z,0
2022-11-05T02:25:43.365Z,0
2022-11-05T02:26:59.678Z,0
2022-11-05T02:28:15.956Z,0
2022-11-05T02:29:32.258Z,0
2022-11-05T02:30:48.532Z,0
2022-11-05T02:32:04.848Z,0
2022-11-05T02:33:21.122Z,0
2022-11-05T02:34:37.432Z,0
2022-11-05T02:35:53.700Z,0
2022-11-05T02:37:10.006Z,0
2022-11-05T02:38:25.310Z,0
2022-11-05T02:39:41.602Z,0
2022-11-05T02:40:57.908Z,0
2022-11-05T02:42:14.223Z,0
2022-11-05T02:43:30.493Z,0
2022-11-05T02:44:46.786Z,0
2022-11-05T02:46:03.072Z,0
2022-11-05T02:47:18.422Z,0
2022-11-05T02:48:33.709Z,0
2022-11-05T02:49:49.022Z,0
2022-11-05T02:51:04.357Z,0
2022-11-05T02:52:20.640Z,0
2022-11-05T02:53:36.941Z,0
2022-11-05T02:54:53.228Z,0
2022-11-05T02:56:09.516Z,0
2022-11-05T02:57:25.802Z,0
2022-11-05T02:58:42.107Z,0
2022-11-05T02:59:58.407Z,0
2022-11-05T03:01:14.684Z,0
2022-11-05T03:02:30.970Z,0
2022-11-05T03:03:47.000Z,0
2022-11-05T03:05:03.585Z,0
2022-11-05T03:06:19.854Z,0
2022-11-05T03:07:35.178Z,0
2022-11-05T03:08:51.478Z,0
2022-11-05T03:10:07.786Z,0
2022-11-05T03:11:24.063Z,0
2022-11-05T03:12:40.353Z,0
2022-11-05T03:13:56.641Z,0
2022-11-05T03:15:12.937Z,0
2022-11-05T03:16:28.263Z,0
2022-11-05T03:17:43.565Z,0
2022-11-05T03:18:59.868Z,0
2022-11-05T03:20:16.183Z,0
2022-11-05T03:21:32.442Z,0
2022-11-05T03:22:48.764Z,0
2022-11-05T03:24:05.034Z,0
2022-11-05T03:25:21.351Z,0
2022-11-05T03:26:37.618Z,0
2022-11-05T03:27:53.912Z,0
2022-11-05T03:29:10.229Z,0
2022-11-05T03:30:26.527Z,0
2022-11-05T03:31:42.821Z,0
2022-11-05T03:32:59.096Z,0
2022-11-05T03:34:14.408Z,0
2022-11-05T03:35:30.725Z,0
2022-11-05T03:36:46.990Z,0
2022-11-05T03:38:03.284Z,0
2022-11-05T03:39:19.575Z,0
2022-11-05T03:40:35.875Z,0
2022-11-05T03:41:52.176Z,0
2022-11-05T03:43:07.503Z,0
2022-11-05T03:44:22.799Z,0
2022-11-05T03:45:38.119Z,0
2022-11-05T03:48:09.716Z,0
2022-11-05T03:49:25.042Z,0
2022-11-05T03:50:40.371Z,0
2022-11-05T03:51:56.664Z,0
2022-11-05T03:53:11.980Z,0
2022-11-05T03:54:27.271Z,0
2022-11-05T03:55:43.555Z,0
2022-11-05T03:56:59.857Z,0
2022-11-05T03:58:16.172Z,0
2022-11-05T03:59:32.464Z,0
2022-11-05T04:00:48.743Z,0
2022-11-05T04:02:05.032Z,0
2022-11-05T04:03:21.327Z,0
2022-11-05T04:04:37.632Z,0
2022-11-05T04:05:53.917Z,0
2022-11-05T04:07:10.225Z,0
2022-11-05T04:08:26.524Z,0
2022-11-05T04:09:42.806Z,0
2022-11-05T04:10:58.111Z,0
2022-11-05T04:12:14.413Z,0
2022-11-05T04:13:30.697Z,0
2022-11-05T04:14:46.989Z,0
2022-11-05T04:16:03.281Z,0
2022-11-05T04:17:19.585Z,0
2022-11-05T04:18:35.882Z,0
2022-11-05T04:19:51.204Z,0
2022-11-05T04:21:06.516Z,0
2022-11-05T04:22:21.819Z,0
2022-11-05T04:23:37.124Z,0
2022-11-05T04:24:53.417Z,0
2022-11-05T04:26:09.722Z,0
2022-11-05T04:27:26.011Z,0
2022-11-05T04:28:42.301Z,0
2022-11-05T04:29:58.601Z,0
2022-11-05T04:31:14.891Z,0
2022-11-05T04:32:31.190Z,0
2022-11-05T04:33:47.478Z,0
2022-11-05T04:35:03.783Z,0
2022-11-05T04:36:20.068Z,0
2022-11-05T04:37:36.359Z,0
2022-11-05T04:38:52.662Z,0
2022-11-05T04:40:07.968Z,0
2022-11-05T04:41:24.257Z,0
2022-11-05T04:42:40.562Z,0
2022-11-05T04:43:56.856Z,0
2022-11-05T04:45:13.143Z,0
2022-11-05T04:46:29.436Z,0
2022-11-05T04:47:45.746Z,0
2022-11-05T04:49:01.048Z,0
2022-11-05T04:50:16.373Z,0
2022-11-05T04:51:31.675Z,0
2022-11-05T04:52:46.984Z,0
2022-11-05T04:54:03.281Z,0
2022-11-05T04:55:19.578Z,0
2022-11-05T04:56:35.880Z,0
2022-11-05T04:57:52.162Z,0
2022-11-05T04:59:08.457Z,0
2022-11-05T05:00:24.751Z,0
2022-11-05T05:01:41.040Z,0
2022-11-05T05:02:57.337Z,0
2022-11-05T05:04:13.632Z,0
2022-11-05T05:05:29.929Z,0
2022-11-05T05:06:46.228Z,0
2022-11-05T05:08:02.517Z,0
2022-11-05T05:09:17.830Z,0
2022-11-05T05:10:34.134Z,0
2022-11-05T05:11:50.417Z,0
2022-11-05T05:13:06.715Z,0
2022-11-05T05:14:23.009Z,0
2022-11-05T05:15:39.306Z,0
2022-11-05T05:16:55.595Z,0
2022-11-05T05:18:10.915Z,0
2022-11-05T05:19:26.220Z,0
2022-11-05T05:20:42.527Z,0
2022-11-05T05:21:58.822Z,0
2022-11-05T05:23:14.125Z,0
2022-11-05T05:24:29.440Z,0
2022-11-05T05:25:45.733Z,0
2022-11-05T05:27:02.028Z,0
2022-11-05T05:28:18.325Z,0
2022-11-05T05:29:34.616Z,0
2022-11-05T05:30:50.913Z,0
2022-11-05T05:32:07.204Z,0
2022-11-05T05:33:23.501Z,0
2022-11-05T05:34:39.789Z,0
2022-11-05T05:35:56.089Z,0
2022-11-05T05:37:12.000Z,1
2022-11-05T05:38:28.579Z,1
2022-11-05T05:39:44.825Z,1
2022-11-05T05:41:00.090Z,1
2022-11-05T05:42:16.322Z,2
2022-11-05T05:43:32.557Z,2
2022-11-05T05:44:48.795Z,3
2022-11-05T05:46:05.039Z,2
2022-11-05T05:47:21.283Z,3
2022-11-05T05:48:37.526Z,4
2022-11-05T05:49:52.787Z,8
2022-11-05T05:51:08.045Z,7
2022-11-05T05:52:24.284Z,7
2022-11-05T05:53:39.552Z,12
2022-11-05T05:54:54.804Z,14
2022-11-05T05:56:11.056Z,18
2022-11-05T05:57:27.284Z,23
2022-11-05T05:58:43.524Z,27
2022-11-05T05:59:59.769Z,34
2022-11-05T06:01:16.000Z,39
2022-11-05T06:02:32.248Z,48
2022-11-05T06:03:48.487Z,55
2022-11-05T06:05:04.730Z,63
2022-11-05T06:06:20.973Z,67
2022-11-05T06:07:37.207Z,84
2022-11-05T06:08:53.445Z,89
2022-11-05T06:10:09.691Z,83
2022-11-05T06:11:24.951Z,88
2022-11-05T06:12:41.183Z,89
2022-11-05T06:13:57.428Z,98
2022-11-05T06:15:13.676Z,95
2022-11-05T06:16:29.905Z,99
2022-11-05T06:17:46.148Z,113
2022-11-05T06:19:02.392Z,126
2022-11-05T06:20:17.663Z,154
2022-11-05T06:21:32.912Z,175
2022-11-05T06:22:49.152Z,175
2022-11-05T06:24:05.382Z,219
2022-11-05T06:25:21.623Z,268
2022-11-05T06:26:37.863Z,294
2022-11-05T06:27:54.105Z,331
2022-11-05T06:29:10.360Z,345
2022-11-05T06:30:26.603Z,383
2022-11-05T06:31:42.823Z,391
2022-11-05T06:32:59.068Z,418
2022-11-05T06:34:15.323Z,462
2022-11-05T06:35:31.547Z,461
2022-11-05T06:36:47.796Z,444
2022-11-05T06:38:03.041Z,567
2022-11-05T06:39:19.294Z,641
2022-11-05T06:40:35.533Z,619
2022-11-05T06:41:51.780Z,590
2022-11-05T06:43:08.004Z,583
2022-11-05T06:44:24.259Z,633
2022-11-05T06:45:40.501Z,670
2022-11-05T06:46:55.751Z,689
2022-11-05T06:48:11.020Z,721
2022-11-05T06:49:26.267Z,737
2022-11-05T06:50:41.521Z,713
2022-11-05T06:51:57.769Z,659
2022-11-05T06:53:14.002Z,614
2022-11-05T06:54:30.245Z,682
2022-11-05T06:55:46.495Z,776
2022-11-05T06:57:02.743Z,876
2022-11-05T06:58:18.969Z,958
2022-11-05T06:59:35.212Z,932
2022-11-05T07:00:51.447Z,876
2022-11-05T07:02:07.690Z,831
2022-11-05T07:03:23.927Z,775
2022-11-05T07:04:40.175Z,767
2022-11-05T07:05:56.404Z,776
2022-11-05T07:07:11.664Z,797
2022-11-05T07:08:27.912Z,814
2022-11-05T07:09:44.147Z,816
2022-11-05T07:11:00.389Z,807
2022-11-05T07:12:16.630Z,742
2022-11-05T07:13:32.874Z,666
2022-11-05T07:14:49.116Z,673
2022-11-05T07:16:04.366Z,703
2022-11-05T07:17:19.623Z,745
2022-11-05T07:18:34.891Z,770
2022-11-05T07:19:50.148Z,815
2022-11-05T07:21:06.379Z,891
2022-11-05T07:22:22.621Z,1129
2022-11-05T07:23:38.862Z,1345
2022-11-05T07:24:55.120Z,1532
2022-11-05T07:26:11.344Z,1859
2022-11-05T07:27:27.602Z,1748
2022-11-05T07:28:43.835Z,1414
2022-11-05T07:30:00.066Z,1244
2022-11-05T07:31:16.309Z,1310
2022-11-05T07:32:32.563Z,1416
2022-11-05T07:33:48.786Z,1521
2022-11-05T07:35:05.039Z,1834
2022-11-05T07:36:20.283Z,1948
2022-11-05T07:37:36.533Z,2026
2022-11-05T07:38:52.768Z,2153
2022-11-05T07:40:09.014Z,2256
2022-11-05T07:41:25.250Z,2280
2022-11-05T07:42:41.498Z,2459
2022-11-05T07:43:57.729Z,2971
2022-11-05T07:45:12.986Z,3335
2022-11-05T07:46:28.243Z,3339
2022-11-05T07:47:43.508Z,3665
2022-11-05T07:48:58.765Z,3216
2022-11-05T07:50:15.016Z,3235
2022-11-05T07:51:31.243Z,4342
2022-11-05T07:52:47.480Z,5111
2022-11-05T07:54:03.738Z,5032
2022-11-05T07:55:19.968Z,5013
2022-11-05T07:56:36.208Z,5534
2022-11-05T07:57:52.440Z,4479
2022-11-05T07:59:08.686Z,3699
2022-11-05T08:00:24.922Z,5113
2022-11-05T08:01:41.168Z,5340
2022-11-05T08:02:57.407Z,5376
2022-11-05T08:04:13.648Z,5385
2022-11-05T08:05:28.914Z,2234
2022-11-05T08:06:45.151Z,4769
2022-11-05T08:08:01.391Z,5805
2022-11-05T08:09:17.636Z,34239
2022-11-05T08:10:33.864Z,11978
2022-11-05T08:11:50.106Z,19668
2022-11-05T08:13:06.348Z,26244
2022-11-05T08:14:21.000Z,18842
2022-11-05T08:15:36.872Z,24097
2022-11-05T08:16:53.109Z,77567
2022-11-05T08:18:09.348Z,79923
2022-11-05T08:19:25.578Z,76369
2022-11-05T08:20:41.819Z,73729
2022-11-05T08:21:58.064Z,24136
2022-11-05T08:23:14.300Z,81008
2022-11-05T08:24:30.544Z,77050
2022-11-05T08:25:46.783Z,75622
2022-11-05T08:27:03.027Z,77179
2022-11-05T08:28:19.264Z,76499
2022-11-05T08:29:35.498Z,80028
2022-11-05T08:30:51.756Z,78224
2022-11-05T08:32:07.002Z,75726
2022-11-05T08:33:23.237Z,77920
2022-11-05T08:34:39.485Z,76855
2022-11-05T08:35:55.733Z,77473
2022-11-05T08:37:11.955Z,78292
2022-11-05T08:38:28.199Z,79274
2022-11-05T08:39:44.444Z,76941
2022-11-05T08:41:00.832Z,78020
2022-11-05T08:42:17.185Z,78077
2022-11-05T08:43:32.447Z,78681
2022-11-05T08:44:47.700Z,80514
2022-11-05T08:46:02.975Z,77432
2022-11-05T08:47:18.217Z,77057
2022-11-05T08:48:34.472Z,77911
2022-11-05T08:49:50.707Z,78423
2022-11-05T08:51:06.945Z,78354
2022-11-05T08:52:23.182Z,83420
2022-11-05T08:53:39.422Z,81775
2022-11-05T08:54:55.665Z,79659
2022-11-05T08:56:11.911Z,79677
2022-11-05T08:57:28.135Z,79041
2022-11-05T08:58:44.378Z,80473
2022-11-05T09:00:00.621Z,80817
2022-11-05T09:01:16.861Z,79854
2022-11-05T09:02:33.103Z,80341
2022-11-05T09:03:48.353Z,79662
2022-11-05T09:05:04.591Z,81629
2022-11-05T09:06:20.831Z,80742
2022-11-05T09:07:37.073Z,79805
2022-11-05T09:08:53.325Z,81845
2022-11-05T09:10:09.554Z,81993
2022-11-05T09:11:25.798Z,81885
2022-11-05T09:12:42.176Z,83350
2022-11-05T09:13:57.439Z,82125
2022-11-05T09:15:13.670Z,80545
2022-11-05T09:16:29.913Z,82527
2022-11-05T09:17:46.152Z,80557
2022-11-05T09:19:02.407Z,81141
2022-11-05T09:20:18.632Z,83091
2022-11-05T09:21:34.872Z,81036
2022-11-05T09:22:51.111Z,82672
2022-11-05T09:24:07.353Z,79668
2022-11-05T09:25:23.597Z,80241
2022-11-05T09:26:39.839Z,82842
2022-11-05T09:27:56.081Z,80074
2022-11-05T09:29:12.317Z,81400
2022-11-05T09:30:27.573Z,78006
2022-11-05T09:31:43.822Z,81141
2022-11-05T09:33:00.057Z,81046
2022-11-05T09:34:16.294Z,78453
2022-11-05T09:35:32.549Z,79330
2022-11-05T09:36:48.781Z,83062
2022-11-05T09:38:05.000Z,81079
2022-11-05T09:39:21.402Z,81843
2022-11-05T09:40:37.760Z,81186
2022-11-05T09:41:54.000Z,82767
2022-11-05T09:43:10.238Z,83092
2022-11-05T09:44:26.484Z,80239
2022-11-05T09:45:42.722Z,79560
2022-11-05T09:46:58.977Z,82624
2022-11-05T09:48:15.208Z,80387
2022-11-05T09:49:31.446Z,77748
2022-11-05T09:50:47.701Z,78579
2022-11-05T09:52:03.936Z,79539
2022-11-05T09:53:20.170Z,79046
2022-11-05T09:54:36.420Z,80188
2022-11-05T09:55:52.655Z,81362
2022-11-05T09:58:24.154Z,79609
2022-11-05T09:59:40.397Z,80873
2022-11-05T10:00:56.630Z,76656
2022-11-05T10:02:12.884Z,71951
2022-11-05T10:03:29.120Z,20541
2022-11-05T10:04:44.384Z,80901
2022-11-05T10:06:00.630Z,80286
2022-11-05T10:07:15.876Z,79677
2022-11-05T10:08:31.131Z,76037
2022-11-05T10:09:46.406Z,79160
2022-11-05T10:11:01.665Z,79644
2022-11-05T10:12:16.919Z,83190
2022-11-05T10:13:32.181Z,82881
2022-11-05T10:14:48.416Z,79427
2022-11-05T10:16:04.656Z,75991
2022-11-05T10:17:20.893Z,64809
2022-11-05T10:18:37.146Z,21346
2022-11-05T10:19:53.390Z,5293
2022-11-05T10:21:09.619Z,18160
2022-11-05T10:22:25.855Z,4364
2022-11-05T10:23:42.093Z,59901
2022-11-05T10:24:58.346Z,8695
2022-11-05T10:26:14.579Z,6552
2022-11-05T10:27:30.834Z,4362
2022-11-05T10:28:47.078Z,75313
2022-11-05T10:30:02.329Z,76083
2022-11-05T10:31:18.574Z,78697
2022-11-05T10:32:34.806Z,76228
2022-11-05T10:33:51.044Z,78649
2022-11-05T10:35:07.294Z,80726
2022-11-05T10:36:23.527Z,78183
2022-11-05T10:37:39.774Z,75139
2022-11-05T10:38:55.033Z,75368
2022-11-05T10:40:10.285Z,75293
2022-11-05T10:41:25.552Z,76446
2022-11-05T10:42:40.805Z,80295
2022-11-05T10:43:56.076Z,81166
2022-11-05T10:45:11.322Z,79940
2022-11-05T10:46:27.574Z,77712
2022-11-05T10:47:43.806Z,58588
2022-11-05T10:49:00.054Z,6891
2022-11-05T10:50:16.297Z,9314
2022-11-05T10:51:32.530Z,3602
2022-11-05T10:52:48.773Z,25283
2022-11-05T10:54:05.015Z,8198
2022-11-05T10:55:21.263Z,7975
2022-11-05T10:56:37.505Z,5314
2022-11-05T10:57:53.736Z,3343
2022-11-05T10:59:09.973Z,6172
2022-11-05T11:00:26.227Z,81442
2022-11-05T11:01:42.597Z,60369
2022-11-05T11:02:58.837Z,11950
2022-11-05T11:04:15.071Z,7840
2022-11-05T11:05:31.311Z,79627
2022-11-05T11:06:47.553Z,79999
2022-11-05T11:08:03.794Z,62545
2022-11-05T11:09:20.040Z,15206
2022-11-05T11:10:35.315Z,81537
2022-11-05T11:11:50.566Z,78434
2022-11-05T11:13:05.830Z,58276
2022-11-05T11:14:21.085Z,6201
2022-11-05T11:15:37.321Z,4432
2022-11-05T11:16:53.573Z,78322
2022-11-05T11:18:09.809Z,81238
2022-11-05T11:19:26.050Z,80847
2022-11-05T11:20:42.296Z,57976
2022-11-05T11:21:58.532Z,5608
2022-11-05T11:23:14.784Z,7450
2022-11-05T11:24:31.011Z,5979
2022-11-05T11:25:47.278Z,30134
2022-11-05T11:27:03.505Z,28228
2022-11-05T11:28:19.746Z,8479
2022-11-05T11:29:36.004Z,4629
2022-11-05T11:30:52.357Z,77163
2022-11-05T11:32:08.610Z,82340
2022-11-05T11:33:24.849Z,72789
2022-11-05T11:34:41.086Z,37651
2022-11-05T11:35:57.324Z,23251
2022-11-05T11:37:13.566Z,62574
2022-11-05T11:38:29.796Z,6870
2022-11-05T11:39:45.067Z,19624
2022-11-05T11:41:00.330Z,5409
2022-11-05T11:42:15.573Z,5775
2022-11-05T11:43:30.849Z,81409
2022-11-05T11:44:47.090Z,61838
2022-11-05T11:46:03.329Z,5311
2022-11-05T11:47:19.561Z,26822
2022-11-05T11:48:35.814Z,27120
2022-11-05T11:49:52.048Z,31058
2022-11-05T11:51:08.285Z,10608
2022-11-05T11:52:24.523Z,11986
2022-11-05T11:53:40.761Z,39191
2022-11-05T11:54:57.021Z,23443
2022-11-05T11:56:13.249Z,67252
2022-11-05T11:57:29.490Z,19822
2022-11-05T11:58:45.720Z,5630
2022-11-05T12:00:02.114Z,80121
2022-11-05T12:01:18.334Z,77497
2022-11-05T12:02:34.573Z,72398
2022-11-05T12:03:50.812Z,18833
2022-11-05T12:05:07.062Z,79913
2022-11-05T12:06:23.292Z,79814
2022-11-05T12:07:39.535Z,75476
2022-11-05T12:08:54.799Z,69183
2022-11-05T12:10:10.052Z,24408
2022-11-05T12:11:25.326Z,7175
2022-11-05T12:12:41.689Z,4097
2022-11-05T12:13:56.933Z,4994
2022-11-05T12:15:12.203Z,82866
2022-11-05T12:16:28.434Z,79495
2022-11-05T12:17:44.678Z,80472
2022-11-05T12:19:00.926Z,78575
2022-11-05T12:20:17.154Z,73077
2022-11-05T12:21:33.399Z,61830
2022-11-05T12:22:49.630Z,12481
2022-11-05T12:24:05.881Z,5974
2022-11-05T12:25:22.127Z,5649
2022-11-05T12:26:38.360Z,5328
2022-11-05T12:27:54.599Z,2455
2022-11-05T12:29:10.840Z,10995
2022-11-05T12:30:27.075Z,62103
2022-11-05T12:31:42.336Z,11797
2022-11-05T12:32:58.580Z,5595
2022-11-05T12:34:14.813Z,3699
2022-11-05T12:35:31.057Z,3331
2022-11-05T12:36:47.288Z,2895
2022-11-05T12:38:03.536Z,2551
2022-11-05T12:39:19.785Z,2325
2022-11-05T12:40:35.040Z,2080
2022-11-05T12:41:50.304Z,1854
2022-11-05T12:43:05.552Z,1729
2022-11-05T12:44:20.811Z,1604
2022-11-05T12:45:37.054Z,1465
2022-11-05T12:46:53.298Z,1345
2022-11-05T12:48:09.530Z,858
2022-11-05T12:49:25.779Z,1887
2022-11-05T12:50:42.012Z,977
2022-11-05T12:51:58.248Z,1774
2022-11-05T12:53:14.485Z,2744
2022-11-05T12:54:30.739Z,2847
2022-11-05T12:55:46.978Z,3233
2022-11-05T12:57:03.220Z,3504
2022-11-05T12:58:19.444Z,3720
2022-11-05T12:59:35.685Z,3841
2022-11-05T13:00:50.945Z,3780
2022-11-05T13:02:07.189Z,3706
2022-11-05T13:03:23.422Z,3756
2022-11-05T13:04:39.658Z,3729
2022-11-05T13:05:55.903Z,3646
2022-11-05T13:07:12.151Z,3608
2022-11-05T13:08:28.384Z,3449
2022-11-05T13:09:44.637Z,3457
2022-11-05T13:10:59.896Z,3145
2022-11-05T13:12:15.146Z,3861
2022-11-05T13:13:30.412Z,2084
2022-11-05T13:14:45.667Z,3577
2022-11-05T13:16:01.897Z,4023
2022-11-05T13:17:18.140Z,3505
2022-11-05T13:18:34.380Z,3631
2022-11-05T13:19:50.618Z,3654
2022-11-05T13:21:06.866Z,3439
2022-11-05T13:22:23.100Z,3467
2022-11-05T13:23:39.338Z,3312
2022-11-05T13:24:55.587Z,24049
2022-11-05T13:26:11.834Z,12936
2022-11-05T13:27:28.078Z,33748
2022-11-05T13:28:44.314Z,38680
2022-11-05T13:30:00.561Z,29141
2022-11-05T13:31:15.797Z,71108
2022-11-05T13:32:32.053Z,36154
2022-11-05T13:33:48.290Z,35411
2022-11-05T13:35:04.529Z,34525
2022-11-05T13:36:20.767Z,36710
2022-11-05T13:37:37.006Z,33633
2022-11-05T13:38:53.247Z,22832
2022-11-05T13:41:24.742Z,3446
2022-11-05T13:42:40.019Z,20372
2022-11-05T13:43:55.266Z,5321
2022-11-05T13:45:11.515Z,18259
2022-11-05T13:46:27.744Z,14780
2022-11-05T13:47:43.995Z,4329
2022-11-05T13:49:00.221Z,3219
2022-11-05T13:50:16.473Z,2486
2022-11-05T13:51:32.713Z,2623
2022-11-05T13:52:48.945Z,2975
2022-11-05T13:54:05.191Z,2832
2022-11-05T13:55:21.420Z,2989
2022-11-05T13:56:37.668Z,2895
2022-11-05T13:57:53.899Z,2835
2022-11-05T13:59:10.139Z,2897
2022-11-05T14:00:25.392Z,2807
2022-11-05T14:01:41.631Z,2663
2022-11-05T14:02:57.885Z,2910
2022-11-05T14:04:14.130Z,2824
2022-11-05T14:05:30.353Z,2808
2022-11-05T14:06:46.606Z,2724
2022-11-05T14:08:02.847Z,2558
2022-11-05T14:09:18.096Z,2370
2022-11-05T14:10:33.366Z,2359
2022-11-05T14:11:48.623Z,2090
2022-11-05T14:13:03.876Z,1448
2022-11-05T14:14:20.120Z,1942
2022-11-05T14:15:35.384Z,2120
2022-11-05T14:16:50.628Z,2204
2022-11-05T14:18:06.863Z,1760
2022-11-05T14:19:22.135Z,1652
2022-11-05T14:20:38.374Z,1605
2022-11-05T14:21:54.617Z,1618
2022-11-05T14:23:10.847Z,1842
2022-11-05T14:24:27.089Z,1963
2022-11-05T14:25:43.324Z,1754
2022-11-05T14:26:59.579Z,1611
2022-11-05T14:28:15.804Z,1539
2022-11-05T14:29:32.064Z,1543
2022-11-05T14:30:48.285Z,1460
2022-11-05T14:32:04.529Z,1417
2022-11-05T14:33:20.778Z,1275
2022-11-05T14:34:37.007Z,1310
2022-11-05T14:35:52.264Z,1470
2022-11-05T14:37:08.515Z,1438
2022-11-05T14:38:24.754Z,1420
2022-11-05T14:39:40.991Z,1550
2022-11-05T14:40:57.225Z,1519
2022-11-05T14:42:12.489Z,1397
2022-11-05T14:43:27.744Z,1400
2022-11-05T14:44:43.983Z,1323
2022-11-05T14:45:59.257Z,1310
2022-11-05T14:47:14.503Z,1291
2022-11-05T14:48:30.755Z,1197
2022-11-05T14:49:46.986Z,1172
2022-11-05T14:51:03.228Z,1126
2022-11-05T14:52:19.461Z,1075
2022-11-05T14:53:35.717Z,1039
2022-11-05T14:54:51.949Z,1007
2022-11-05T14:56:08.191Z,966
2022-11-05T14:57:24.418Z,937
2022-11-05T14:58:40.668Z,908
2022-11-05T14:59:56.907Z,894
2022-11-05T15:01:13.147Z,862
2022-11-05T15:02:29.379Z,831
2022-11-05T15:03:44.641Z,796
2022-11-05T15:05:00.883Z,763
2022-11-05T15:06:17.135Z,729
2022-11-05T15:07:33.362Z,695
2022-11-05T15:08:49.595Z,664
2022-11-05T15:10:05.848Z,636
2022-11-05T15:11:22.096Z,605
2022-11-05T15:12:37.347Z,572
2022-11-05T15:13:52.611Z,542
2022-11-05T15:15:08.833Z,510
2022-11-05T15:16:25.080Z,489
2022-11-05T15:17:40.339Z,469
2022-11-05T15:18:55.600Z,450
2022-11-05T15:20:11.845Z,429
2022-11-05T15:21:28.091Z,408
2022-11-05T15:22:44.322Z,382
2022-11-05T15:24:00.564Z,364
2022-11-05T15:25:16.803Z,342
2022-11-05T15:26:33.051Z,313
2022-11-05T15:27:49.282Z,285
2022-11-05T15:29:05.529Z,255
2022-11-05T15:30:21.754Z,230
2022-11-05T15:31:37.995Z,210
2022-11-05T15:32:54.237Z,191
2022-11-05T15:34:10.487Z,175
2022-11-05T15:35:25.733Z,158
2022-11-05T15:36:41.984Z,146
2022-11-05T15:37:58.218Z,131
2022-11-05T15:39:14.449Z,119
2022-11-05T15:40:30.707Z,108
2022-11-05T15:41:46.938Z,94
2022-11-05T15:43:03.182Z,81
2022-11-05T15:44:18.434Z,74
2022-11-05T15:45:33.703Z,64
2022-11-05T15:46:48.949Z,52
2022-11-05T15:48:04.210Z,45
2022-11-05T15:49:20.448Z,38
2022-11-05T15:50:36.698Z,36
2022-11-05T15:51:52.944Z,29
2022-11-05T15:53:09.167Z,23
2022-11-05T15:54:25.431Z,21
2022-11-05T15:55:41.654Z,17
2022-11-05T15:56:57.895Z,13
2022-11-05T15:58:14.139Z,11
2022-11-05T15:59:30.368Z,10
2022-11-05T16:00:46.607Z,5
2022-11-05T16:02:02.860Z,3
2022-11-05T16:03:19.098Z,3
2022-11-05T16:04:34.346Z,3
2022-11-05T16:05:50.592Z,2
2022-11-05T16:07:06.831Z,1
2022-11-05T16:08:23.077Z,1
2022-11-05T16:09:39.314Z,1
2022-11-05T16:10:55.606Z,0
2022-11-05T16:12:11.898Z,0
2022-11-05T16:13:27.228Z,0
2022-11-05T16:14:42.538Z,0
2022-11-05T16:15:58.820Z,0
2022-11-05T16:17:14.133Z,0
2022-11-05T16:18:29.452Z,0
2022-11-05T16:19:45.734Z,0
2022-11-05T16:21:02.034Z,0
2022-11-05T16:22:18.324Z,0
2022-11-05T16:23:34.636Z,0
2022-11-05T16:24:50.925Z,0
2022-11-05T16:26:07.212Z,0
2022-11-05T16:27:23.506Z,0
2022-11-05T16:28:39.814Z,0
2022-11-05T16:29:56.087Z,0
2022-11-05T16:31:12.385Z,0
2022-11-05T16:32:28.688Z,0
2022-11-05T16:33:44.969Z,0
2022-11-05T16:35:00.288Z,0
2022-11-05T16:36:16.585Z,0
2022-11-05T16:37:32.873Z,0
2022-11-05T16:38:49.171Z,0
2022-11-05T16:40:05.457Z,0
2022-11-05T16:41:21.750Z,0
2022-11-05T16:42:38.054Z,0
2022-11-05T16:43:53.369Z,0
2022-11-05T16:45:08.677Z,0
2022-11-05T16:46:24.963Z,0
2022-11-05T16:47:40.290Z,0
2022-11-05T16:48:55.601Z,0
2022-11-05T16:50:11.892Z,0
2022-11-05T16:51:28.177Z,0
2022-11-05T16:52:44.489Z,0
2022-11-05T16:54:00.778Z,0
2022-11-05T16:55:17.074Z,0
2022-11-05T16:56:33.364Z,0
2022-11-05T16:57:49.659Z,0
2022-11-05T16:59:05.952Z,0
2022-11-05T17:00:22.240Z,0
2022-11-05T17:01:38.547Z,0
2022-11-05T17:02:54.834Z,0
2022-11-05T17:04:11.140Z,0
2022-11-05T17:05:26.445Z,0
2022-11-05T17:06:42.737Z,0
2022-11-05T17:07:59.022Z,0
2022-11-05T17:09:15.314Z,0
2022-11-05T17:10:31.624Z,0
2022-11-05T17:11:47.918Z,0
2022-11-05T17:13:04.205Z,0
2022-11-05T17:14:19.522Z,0
2022-11-05T17:15:34.840Z,0
2022-11-05T17:16:51.119Z,0
2022-11-05T17:18:06.457Z,0
2022-11-05T17:19:21.744Z,0
2022-11-05T17:20:38.037Z,0
2022-11-05T17:21:54.346Z,0
2022-11-05T17:23:10.635Z,0
2022-11-05T17:24:26.939Z,0
2022-11-05T17:25:43.224Z,0
2022-11-05T17:26:59.519Z,0
2022-11-05T17:28:15.817Z,0
2022-11-05T17:29:32.110Z,0
2022-11-05T17:30:48.409Z,0
2022-11-05T17:32:04.699Z,0
2022-11-05T17:33:20.992Z,0
2022-11-05T17:34:37.276Z,0
2022-11-05T17:35:52.602Z,0
2022-11-05T17:37:08.896Z,0
2022-11-05T17:38:25.187Z,0
2022-11-05T17:39:41.467Z,0
2022-11-05T17:40:57.772Z,0
2022-11-05T17:42:14.070Z,0